Time;durP1;ratioP1;P1;durP2;ratioP2;P2;SDS_P1;SDS_P2;PMS_P1;PMS_P2;Temp;Humidity;BMP_temperature;BMP_pressure;BME280_temperature;BME280_humidity;BME280_pressure;Samples;Min_cycle;Max_cycle;Signal;HPM_P1;HPM_P2
2022/07/25 06:35:42;;;;;;;9.40;8.23;;;34.90;99.90;;;;;;5344476;23;20060;-93
2022/07/25 06:38:20;;;;;;;7.72;6.80;;;35.20;99.90;;;;;;4890515;29;20036;-93
2022/07/25 06:40:57;;;;;;;24.02;6.95;;;35.60;99.90;;;;;;4888741;29;20055;-95
2022/07/25 06:43:59;;;;;;;9.60;8.15;;;35.10;99.90;;;;;;4889314;29;20123;-94
2022/07/25 06:46:52;;;;;;;11.05;7.72;;;35.40;99.90;;;;;;4854547;29;20029;-94
2022/07/25 06:53:08;;;;;;;9.65;7.15;;;34.50;99.90;;;;;;4863278;29;20041;-93
2022/07/25 06:56:31;;;;;;;11.07;7.60;;;34.30;99.90;;;;;;4889598;29;20072;-93
2022/07/25 06:59:03;;;;;;;9.15;8.23;;;34.70;99.90;;;;;;4880228;23;20101;-92
2022/07/25 07:01:30;;;;;;;8.68;6.95;;;34.80;99.90;;;;;;4882428;29;20037;-94
2022/07/25 07:03:56;;;;;;;9.60;7.20;;;34.80;99.90;;;;;;4882300;29;20486;-92
2022/07/25 07:06:23;;;;;;;10.02;7.80;;;34.80;99.90;;;;;;4885540;29;20032;-94
2022/07/25 07:08:49;;;;;;;10.98;8.70;;;35.00;99.90;;;;;;4900081;29;20037;-92
2022/07/25 07:11:16;;;;;;;13.75;10.07;;;35.10;99.90;;;;;;4883042;29;20037;-93
2022/07/25 07:13:45;;;;;;;10.02;8.45;;;35.50;99.90;;;;;;4882395;29;20080;-93
2022/07/25 07:16:12;;;;;;;14.00;8.48;;;35.60;99.90;;;;;;4882255;29;20060;-91
2022/07/25 07:18:39;;;;;;;9.93;8.05;;;35.40;99.90;;;;;;4898005;29;20028;-91
2022/07/25 07:21:06;;;;;;;9.48;8.57;;;35.60;99.90;;;;;;4897934;29;20059;-92
2022/07/25 07:23:32;;;;;;;9.55;8.73;;;35.20;99.90;;;;;;4897675;29;20054;-93
2022/07/25 07:25:59;;;;;;;9.80;8.82;;;35.20;99.90;;;;;;4899907;29;20044;-91
2022/07/25 07:28:29;;;;;;;9.88;8.88;;;35.30;99.90;;;;;;4898084;29;20032;-92
2022/07/25 07:30:56;;;;;;;9.57;8.68;;;35.40;99.90;;;;;;4882025;29;20044;-93
2022/07/25 07:33:22;;;;;;;8.50;7.80;;;35.90;99.90;;;;;;4897788;29;20028;-92
2022/07/25 07:35:49;;;;;;;10.27;8.90;;;35.80;99.90;;;;;;4901061;29;20391;-92
2022/07/25 07:38:16;;;;;;;10.32;9.43;;;36.00;99.90;;;;;;4885235;29;20036;-91
2022/07/25 07:40:43;;;;;;;9.93;9.13;;;36.00;99.90;;;;;;4885360;29;20071;-90
2022/07/25 07:43:09;;;;;;;10.70;9.65;;;36.00;99.90;;;;;;4885468;29;20062;-90
2022/07/25 07:45:36;;;;;;;10.10;9.15;;;35.50;99.90;;;;;;4885416;29;20043;-91
2022/07/25 07:48:02;;;;;;;11.55;9.15;;;35.20;99.90;;;;;;4885488;29;20021;-92
2022/07/25 07:50:28;;;;;;;11.68;10.48;;;35.10;99.90;;;;;;4885341;29;20075;-94
2022/07/25 07:52:57;;;;;;;11.65;10.45;;;35.30;99.90;;;;;;4900856;29;20024;-92
2022/07/25 07:58:09;;;;;;;14.68;11.25;;;35.90;99.90;;;;;;4901019;29;20056;-91
2022/07/25 08:00:38;;;;;;;11.75;10.70;;;35.60;99.90;;;;;;4883846;29;20068;-92
2022/07/25 08:03:07;;;;;;;15.88;9.73;;;35.00;99.90;;;;;;4866661;29;20068;-93
2022/07/25 08:05:35;;;;;;;12.70;11.38;;;35.10;99.90;;;;;;4866505;29;20025;-91
2022/07/25 08:08:01;;;;;;;11.10;10.20;;;35.60;99.90;;;;;;4871515;29;20034;-93
2022/07/25 08:10:30;;;;;;;11.75;10.48;;;35.80;99.90;;;;;;4869615;29;20546;-94
2022/07/25 08:13:13;;;;;;;9.95;9.10;;;35.70;99.90;;;;;;4885129;29;20025;-94
2022/07/25 08:15:44;;;;;;;10.48;9.57;;;35.60;99.90;;;;;;4869690;29;20029;-93
2022/07/25 08:18:11;;;;;;;13.73;11.00;;;35.40;99.90;;;;;;4887725;29;20120;-92
2022/07/25 08:20:38;;;;;;;11.50;9.63;;;35.70;99.90;;;;;;4869791;29;20036;-92
2022/07/25 08:23:05;;;;;;;12.25;10.00;;;35.40;99.90;;;;;;4869973;29;20075;-92
2022/07/25 08:25:39;;;;;;;12.20;11.05;;;35.50;99.90;;;;;;4869282;29;20029;-94
2022/07/25 08:28:06;;;;;;;12.38;11.48;;;35.30;99.90;;;;;;4869186;29;20625;-93
2022/07/25 08:30:34;;;;;;;11.93;10.77;;;35.50;99.90;;;;;;4869156;29;20044;-92
2022/07/25 08:33:04;;;;;;;15.30;12.43;;;35.80;99.90;;;;;;4869261;29;20036;-92
2022/07/25 08:35:32;;;;;;;12.15;11.02;;;36.20;99.90;;;;;;4869300;29;20043;-90
2022/07/25 08:38:36;;;;;;;14.63;13.45;;;36.20;99.90;;;;;;4869183;29;20032;-93
2022/07/25 08:41:06;;;;;;;14.00;12.70;;;35.80;99.90;;;;;;4868948;29;20043;-93
2022/07/25 08:43:36;;;;;;;12.73;11.55;;;35.60;99.90;;;;;;4884529;29;20064;-94
2022/07/25 08:46:05;;;;;;;13.85;11.82;;;35.30;99.90;;;;;;4868496;29;20140;-93
2022/07/25 08:48:32;;;;;;;12.60;11.55;;;35.30;99.90;;;;;;4869045;29;20035;-92
2022/07/25 08:50:59;;;;;;;12.13;11.02;;;35.50;99.90;;;;;;4886573;29;20045;-93
2022/07/25 08:53:26;;;;;;;12.38;11.23;;;35.50;99.90;;;;;;4879196;29;20200;-92
2022/07/25 08:55:53;;;;;;;13.68;11.02;;;35.50;99.90;;;;;;4889745;29;20043;-93
2022/07/25 08:58:19;;;;;;;13.77;10.65;;;35.40;99.90;;;;;;4870618;29;20048;-93
2022/07/25 09:00:47;;;;;;;12.45;10.82;;;35.50;99.90;;;;;;4901510;29;20056;-93
2022/07/25 09:03:13;;;;;;;12.65;11.55;;;35.50;99.90;;;;;;4906160;29;20025;-93
2022/07/25 09:05:46;;;;;;;14.05;11.68;;;35.60;99.90;;;;;;4904226;29;20058;-94
2022/07/25 09:08:19;;;;;;;13.88;12.73;;;36.10;99.90;;;;;;4902984;29;20032;-94
2022/07/25 09:10:52;;;;;;;13.95;12.55;;;36.00;99.90;;;;;;4902891;29;20040;-93
2022/07/25 09:13:22;;;;;;;14.05;12.43;;;36.10;99.90;;;;;;4902948;29;20489;-94
2022/07/25 09:15:58;;;;;;;13.93;12.60;;;35.50;99.90;;;;;;4918866;29;20478;-93
2022/07/25 09:18:28;;;;;;;13.65;12.55;;;35.70;99.90;;;;;;4918238;29;20032;-94
2022/07/25 09:20:59;;;;;;;14.75;13.55;;;35.90;99.90;;;;;;4902843;29;20055;-93
2022/07/25 09:23:37;;;;;;;14.50;13.50;;;36.10;99.90;;;;;;4902611;29;20068;-92
2022/07/25 09:26:12;;;;;;;14.00;12.77;;;35.80;99.90;;;;;;4902804;29;20032;-92
2022/07/25 09:28:46;;;;;;;14.88;13.38;;;35.70;99.90;;;;;;4903184;29;20028;-93
2022/07/25 09:31:16;;;;;;;13.48;12.38;;;36.10;99.90;;;;;;4902226;29;20040;-92
2022/07/25 09:33:50;;;;;;;15.10;13.70;;;36.10;99.90;;;;;;4918026;29;20494;-92
2022/07/25 09:36:17;;;;;;;15.65;14.32;;;35.60;99.90;;;;;;4902160;29;20032;-93
2022/07/25 09:38:59;;;;;;;14.15;12.75;;;35.50;99.90;;;;;;4902187;29;20020;-91
2022/07/25 09:41:40;;;;;;;15.18;13.63;;;35.20;99.90;;;;;;4917986;29;20552;-91
2022/07/25 09:44:17;;;;;;;13.98;12.88;;;35.10;99.90;;;;;;4902454;29;20031;-93
2022/07/25 09:46:44;;;;;;;16.33;13.00;;;35.00;99.90;;;;;;4917987;29;20043;-91
2022/07/25 09:49:14;;;;;;;15.57;13.80;;;35.10;99.90;;;;;;4902970;29;20044;-91
2022/07/25 09:51:43;;;;;;;16.45;14.82;;;35.50;99.90;;;;;;4917352;29;20055;-93
2022/07/25 09:54:09;;;;;;;15.82;14.25;;;35.60;99.90;;;;;;4901906;29;20043;-92
2022/07/25 09:56:36;;;;;;;15.35;13.82;;;35.30;99.90;;;;;;4917293;29;20043;-93
2022/07/25 09:59:04;;;;;;;15.60;14.15;;;35.40;99.90;;;;;;4901340;29;20413;-91
2022/07/25 10:01:55;;;;;;;15.20;14.02;;;35.10;99.90;;;;;;4901994;29;20058;-91
2022/07/25 10:04:30;;;;;;;15.05;13.85;;;35.50;99.90;;;;;;4901735;29;20032;-92
2022/07/25 10:07:11;;;;;;;15.77;14.32;;;35.80;99.90;;;;;;4917619;29;20541;-92
2022/07/25 10:09:47;;;;;;;16.17;14.85;;;35.50;99.90;;;;;;4917243;29;20039;-92
2022/07/25 10:12:18;;;;;;;14.63;13.43;;;35.20;99.90;;;;;;4901387;29;20039;-91
2022/07/25 10:15:05;;;;;;;15.02;13.93;;;34.90;99.90;;;;;;4919595;29;20072;-92
2022/07/25 10:17:32;;;;;;;16.88;15.32;;;35.00;99.90;;;;;;4918502;29;20060;-92
2022/07/25 10:20:00;;;;;;;15.93;14.63;;;34.90;99.90;;;;;;4901630;29;20477;-93
2022/07/25 10:22:47;;;;;;;15.55;14.35;;;34.90;99.90;;;;;;4917462;29;20040;-93
2022/07/25 10:25:18;;;;;;;16.88;15.35;;;35.20;99.90;;;;;;4917311;29;20039;-93
2022/07/25 10:27:48;;;;;;;15.73;14.27;;;35.10;99.90;;;;;;4901454;29;20123;-92
2022/07/25 10:30:39;;;;;;;16.10;14.48;;;35.10;99.90;;;;;;4901550;29;20052;-92
2022/07/25 10:33:14;;;;;;;16.00;14.80;;;35.30;99.90;;;;;;4901705;29;20044;-93
2022/07/25 10:35:42;;;;;;;15.68;14.15;;;35.40;99.90;;;;;;4917371;29;20031;-92
2022/07/25 10:38:12;;;;;;;16.35;14.80;;;35.60;99.90;;;;;;4917241;29;20036;-92
2022/07/25 10:40:42;;;;;;;15.48;14.35;;;35.50;99.90;;;;;;4901667;29;20032;-92
2022/07/25 10:43:12;;;;;;;17.15;15.80;;;35.50;99.90;;;;;;4901428;29;20417;-94
2022/07/25 10:45:50;;;;;;;16.48;14.98;;;35.40;99.90;;;;;;4917390;29;20088;-92
2022/07/25 10:48:37;;;;;;;17.02;15.65;;;35.20;99.90;;;;;;4907300;29;20039;-91
2022/07/25 10:51:12;;;;;;;15.70;14.50;;;35.10;99.90;;;;;;4907339;29;20051;-92
2022/07/25 10:53:45;;;;;;;16.27;14.75;;;35.10;99.90;;;;;;4904816;29;20060;-93
2022/07/25 10:56:27;;;;;;;17.00;15.70;;;35.30;99.90;;;;;;4901612;29;20403;-92
2022/07/25 10:58:56;;;;;;;17.35;15.63;;;35.00;99.90;;;;;;4918890;29;20076;-93
2022/07/25 11:01:27;;;;;;;17.52;15.85;;;35.20;99.90;;;;;;4902649;29;20048;-94
2022/07/25 11:04:01;;;;;;;15.73;14.45;;;35.20;99.90;;;;;;4901016;29;20052;-94
2022/07/25 11:06:39;;;;;;;15.82;14.52;;;35.40;99.90;;;;;;4916723;29;20087;-94
2022/07/25 11:09:35;;;;;;;16.90;15.23;;;35.40;99.90;;;;;;4918335;29;20032;-92
2022/07/25 11:12:02;;;;;;;16.08;14.77;;;35.60;99.90;;;;;;4848429;29;20050;-94
2022/07/25 11:14:55;;;;;;;16.05;14.80;;;35.50;99.90;;;;;;4848200;29;20030;-92
2022/07/25 11:17:23;;;;;;;18.27;16.05;;;35.60;99.90;;;;;;4848233;29;20029;-93
2022/07/25 11:20:10;;;;;;;16.65;15.45;;;35.80;99.90;;;;;;4848193;29;20051;-92
2022/07/25 11:22:37;;;;;;;16.55;15.35;;;35.60;99.90;;;;;;4848281;29;20074;-93
2022/07/25 11:25:13;;;;;;;17.45;15.82;;;35.60;99.90;;;;;;4848087;29;20028;-93
2022/07/25 11:27:56;;;;;;;17.13;15.68;;;35.60;99.90;;;;;;4848094;29;20033;-94
2022/07/25 11:30:24;;;;;;;16.88;15.55;;;35.70;99.90;;;;;;4847772;29;20042;-91
2022/07/25 11:32:56;;;;;;;16.67;15.35;;;35.90;99.90;;;;;;4832562;29;20033;-92
2022/07/25 11:35:26;;;;;;;16.33;15.00;;;36.00;99.90;;;;;;4848024;29;20089;-92
2022/07/25 11:37:53;;;;;;;17.45;15.93;;;35.80;99.90;;;;;;4847650;29;20038;-92
2022/07/25 11:40:26;;;;;;;17.80;16.10;;;35.70;99.90;;;;;;4847776;29;20515;-91
2022/07/25 11:42:56;;;;;;;16.92;15.63;;;35.40;99.90;;;;;;4847634;29;20045;-91
2022/07/25 11:45:28;;;;;;;16.90;15.43;;;35.40;99.90;;;;;;4847805;29;20045;-93
2022/07/25 11:48:10;;;;;;;18.13;15.73;;;35.30;99.90;;;;;;4868599;29;20040;-93
2022/07/25 11:50:45;;;;;;;17.60;16.23;;;35.60;99.90;;;;;;4904286;29;20032;-92
2022/07/25 11:53:17;;;;;;;17.13;15.82;;;35.90;99.90;;;;;;4904187;29;20485;-92
2022/07/25 11:55:45;;;;;;;16.80;15.60;;;35.90;99.90;;;;;;4919796;29;20032;-91
2022/07/25 11:58:13;;;;;;;16.55;15.20;;;35.70;99.90;;;;;;4903952;29;20367;-92
2022/07/25 12:00:48;;;;;;;17.75;16.20;;;35.70;99.90;;;;;;4919509;29;20040;-91
2022/07/25 12:03:17;;;;;;;16.27;14.95;;;36.00;99.90;;;;;;4903789;29;20116;-91
2022/07/25 12:05:44;;;;;;;16.60;15.18;;;35.90;99.90;;;;;;4903861;29;20076;-92
2022/07/25 12:08:13;;;;;;;16.30;15.10;;;35.90;99.30;;;;;;4919746;29;20044;-92
2022/07/25 12:10:54;;;;;;;17.95;16.25;;;35.90;99.70;;;;;;4903808;29;20122;-92
2022/07/25 12:13:26;;;;;;;17.15;15.80;;;36.10;99.90;;;;;;4903846;29;20036;-92
2022/07/25 12:15:55;;;;;;;16.35;15.18;;;35.90;99.90;;;;;;4903824;29;20481;-93
2022/07/25 12:18:26;;;;;;;17.25;15.95;;;35.70;99.90;;;;;;4919675;29;20098;-94
2022/07/25 12:20:56;;;;;;;16.55;15.25;;;35.80;99.90;;;;;;4918275;29;20032;-94
2022/07/25 12:23:26;;;;;;;16.75;15.63;;;36.00;99.90;;;;;;4919333;29;20028;-92
2022/07/25 12:25:52;;;;;;;16.60;15.48;;;36.10;99.90;;;;;;4919247;29;20500;-91
2022/07/25 12:28:19;;;;;;;17.35;16.13;;;36.00;99.30;;;;;;4919337;29;20059;-92
2022/07/25 12:30:47;;;;;;;16.65;15.52;;;36.00;98.90;;;;;;4919577;29;20036;-92
2022/07/25 12:33:14;;;;;;;17.45;15.98;;;36.00;97.70;;;;;;4920628;29;20043;-93
2022/07/25 12:35:41;;;;;;;17.75;16.55;;;36.10;97.90;;;;;;4904061;29;20473;-92
2022/07/25 12:38:09;;;;;;;17.90;16.60;;;36.20;99.20;;;;;;4903644;29;20032;-92
2022/07/25 12:40:49;;;;;;;16.77;15.38;;;36.00;98.50;;;;;;4903451;29;20036;-93
2022/07/25 12:43:15;;;;;;;17.25;16.13;;;36.10;98.80;;;;;;4903704;29;20541;-92
2022/07/25 12:45:51;;;;;;;17.58;16.27;;;36.30;98.60;;;;;;4903628;29;20110;-92
2022/07/25 12:48:18;;;;;;;19.10;17.67;;;36.20;97.70;;;;;;4903538;29;20028;-92
2022/07/25 12:50:44;;;;;;;17.90;16.50;;;36.20;97.00;;;;;;4903991;29;20043;-91
2022/07/25 12:53:15;;;;;;;19.20;17.40;;;35.90;96.60;;;;;;4904068;29;20024;-93
2022/07/25 12:55:41;;;;;;;17.35;16.25;;;36.10;95.80;;;;;;4904241;29;20068;-92
2022/07/25 12:58:08;;;;;;;19.05;17.42;;;36.20;96.70;;;;;;4920116;29;20028;-93
2022/07/25 13:00:35;;;;;;;16.80;15.80;;;36.20;95.10;;;;;;4919175;29;20060;-93
2022/07/25 13:03:01;;;;;;;17.10;15.77;;;36.20;94.20;;;;;;4920944;29;20028;-93
2022/07/25 13:05:28;;;;;;;17.35;16.13;;;36.30;95.10;;;;;;4921489;29;20024;-92
2022/07/25 13:07:55;;;;;;;18.08;16.65;;;36.40;95.50;;;;;;4920049;29;20063;-92
2022/07/25 13:10:22;;;;;;;18.60;17.17;;;36.40;95.80;;;;;;4904845;29;20033;-91
2022/07/25 13:12:49;;;;;;;18.38;16.90;;;36.40;96.60;;;;;;4902990;29;20032;-93
2022/07/25 13:15:19;;;;;;;17.58;16.48;;;36.10;95.70;;;;;;4903334;29;20044;-93
2022/07/25 13:17:46;;;;;;;17.15;15.75;;;36.40;96.00;;;;;;4919578;29;20040;-93
2022/07/25 13:20:14;;;;;;;17.77;16.38;;;36.40;95.70;;;;;;4903161;29;20509;-93
2022/07/25 13:22:41;;;;;;;17.40;16.27;;;36.30;95.30;;;;;;4903443;29;20035;-92
2022/07/25 13:25:08;;;;;;;17.25;16.20;;;36.30;95.60;;;;;;4903518;29;20509;-92
2022/07/25 13:27:35;;;;;;;17.20;16.13;;;36.30;95.70;;;;;;4919167;29;20037;-92
2022/07/25 13:30:03;;;;;;;19.33;17.67;;;36.30;95.10;;;;;;4902635;29;20036;-94
2022/07/25 13:32:30;;;;;;;18.40;16.95;;;36.30;95.60;;;;;;4917990;29;20028;-91
2022/07/25 13:34:57;;;;;;;18.75;17.38;;;36.10;94.90;;;;;;4902492;29;20100;-91
2022/07/25 13:37:23;;;;;;;18.50;17.20;;;36.00;94.70;;;;;;4902412;29;20052;-92
2022/07/25 13:39:50;;;;;;;18.38;17.08;;;35.90;94.60;;;;;;4918291;29;20144;-92
2022/07/25 13:42:16;;;;;;;19.50;18.10;;;35.80;94.50;;;;;;4918330;29;20099;-91
2022/07/25 13:44:43;;;;;;;18.88;17.13;;;35.90;94.70;;;;;;4902450;29;20037;-92
2022/07/25 13:47:10;;;;;;;18.88;17.27;;;36.10;94.70;;;;;;4917838;29;20445;-92
2022/07/25 13:49:37;;;;;;;18.08;16.88;;;35.90;94.70;;;;;;4902255;29;20032;-91
2022/07/25 13:52:04;;;;;;;18.00;16.75;;;36.00;94.90;;;;;;4917941;29;20036;-92
2022/07/25 13:54:31;;;;;;;17.80;16.60;;;36.20;95.10;;;;;;4902222;29;20055;-93
2022/07/25 13:56:58;;;;;;;17.70;16.40;;;36.30;94.60;;;;;;4918232;29;20036;-93
2022/07/25 13:59:24;;;;;;;19.00;17.42;;;36.50;94.70;;;;;;4902400;29;20103;-91
2022/07/25 14:01:51;;;;;;;18.48;17.17;;;36.50;94.80;;;;;;4901895;29;20031;-92
2022/07/25 14:04:18;;;;;;;19.05;17.38;;;36.60;94.90;;;;;;4917788;29;20028;-93
2022/07/25 14:06:44;;;;;;;19.08;17.67;;;36.40;94.80;;;;;;4902093;29;20028;-92
2022/07/25 14:09:11;;;;;;;18.27;16.98;;;36.10;94.70;;;;;;4917672;29;20485;-92
2022/07/25 14:11:40;;;;;;;18.92;17.52;;;35.80;94.90;;;;;;4901961;29;20068;-91
2022/07/25 14:14:07;;;;;;;18.30;17.13;;;35.90;94.90;;;;;;4918543;29;20040;-93
2022/07/25 14:16:33;;;;;;;19.00;17.60;;;36.00;94.90;;;;;;4902260;29;20064;-92
2022/07/25 14:19:12;;;;;;;18.20;17.00;;;35.90;94.40;;;;;;4902089;29;20032;-93
2022/07/25 14:21:39;;;;;;;18.63;17.25;;;35.90;94.30;;;;;;4902053;29;20032;-93
2022/07/25 14:24:06;;;;;;;18.58;17.25;;;35.80;94.20;;;;;;4903323;29;20071;-93
2022/07/25 14:26:34;;;;;;;18.65;17.25;;;35.80;94.00;;;;;;4917817;29;20481;-94
2022/07/25 14:29:01;;;;;;;18.60;17.23;;;35.70;94.10;;;;;;4901905;29;20481;-91
2022/07/25 14:31:40;;;;;;;18.92;17.60;;;35.80;94.50;;;;;;4918527;29;20462;-93
2022/07/25 14:34:07;;;;;;;19.55;18.15;;;35.90;94.50;;;;;;4903988;29;20040;-92
2022/07/25 14:36:35;;;;;;;18.88;17.58;;;35.80;94.10;;;;;;4916963;29;20028;-93
2022/07/25 14:39:03;;;;;;;18.48;17.17;;;35.60;94.30;;;;;;4902187;29;20040;-94
2022/07/25 14:41:30;;;;;;;19.10;17.70;;;35.60;94.80;;;;;;4916902;29;20040;-94
2022/07/25 14:43:56;;;;;;;19.60;17.73;;;35.80;94.70;;;;;;4901198;29;20075;-94
2022/07/25 14:46:23;;;;;;;18.85;17.40;;;35.60;95.00;;;;;;4902144;29;20168;-91
2022/07/25 14:48:53;;;;;;;18.83;17.33;;;35.60;94.80;;;;;;4922245;29;20036;-92
2022/07/25 14:51:20;;;;;;;18.92;16.85;;;35.50;94.80;;;;;;4907231;29;20041;-93
2022/07/25 14:53:50;;;;;;;19.73;18.27;;;35.50;94.80;;;;;;4903834;29;20028;-92
2022/07/25 14:56:16;;;;;;;19.40;17.90;;;35.50;94.90;;;;;;4917591;29;20044;-92
2022/07/25 14:58:52;;;;;;;18.95;17.30;;;35.30;94.70;;;;;;4904150;29;20024;-93
2022/07/25 15:01:19;;;;;;;19.48;17.75;;;35.20;94.90;;;;;;4903008;29;20071;-94
2022/07/25 15:03:46;;;;;;;19.10;17.55;;;35.30;94.50;;;;;;4901699;29;20052;-94
2022/07/25 15:06:13;;;;;;;17.73;16.42;;;35.10;94.60;;;;;;4901615;29;20066;-91
2022/07/25 15:08:39;;;;;;;19.00;17.50;;;35.00;95.00;;;;;;4901763;29;20025;-92
2022/07/25 15:11:06;;;;;;;18.05;16.85;;;35.00;94.80;;;;;;4901708;29;20482;-93
2022/07/25 15:13:34;;;;;;;19.30;18.00;;;35.00;94.50;;;;;;4901656;29;20036;-95
2022/07/25 15:16:02;;;;;;;19.15;17.67;;;35.00;94.20;;;;;;4889638;29;20056;-93
2022/07/25 15:18:29;;;;;;;18.42;16.98;;;34.90;95.60;;;;;;4897927;29;20025;-92
2022/07/25 15:20:56;;;;;;;19.20;17.55;;;35.00;95.80;;;;;;4882065;29;20574;-91
2022/07/25 15:23:26;;;;;;;17.73;16.55;;;35.00;95.40;;;;;;4882088;29;20033;-92
2022/07/25 15:25:54;;;;;;;19.20;17.60;;;35.00;95.20;;;;;;4896822;29;20071;-94
2022/07/25 15:28:21;;;;;;;18.20;16.85;;;35.20;95.50;;;;;;4888785;29;20033;-92
2022/07/25 15:30:49;;;;;;;17.85;16.63;;;35.30;94.80;;;;;;4899416;29;20063;-93
2022/07/25 15:33:19;;;;;;;19.45;17.75;;;35.40;95.00;;;;;;4900979;29;20115;-92
2022/07/25 15:35:46;;;;;;;18.45;16.95;;;35.50;94.70;;;;;;4900645;29;20028;-95
2022/07/25 15:38:16;;;;;;;19.75;18.30;;;35.20;94.60;;;;;;4900720;29;20073;-92
2022/07/25 15:40:44;;;;;;;17.75;16.27;;;35.20;94.60;;;;;;4901297;29;20032;-92
2022/07/25 15:43:12;;;;;;;17.95;16.55;;;35.00;94.80;;;;;;4900626;29;20033;-93
2022/07/25 15:45:44;;;;;;;18.27;16.80;;;35.00;94.70;;;;;;4901066;29;20505;-92
2022/07/25 15:48:13;;;;;;;18.17;16.98;;;34.90;94.80;;;;;;4900845;29;20137;-93
2022/07/25 15:50:46;;;;;;;18.13;16.75;;;34.90;94.90;;;;;;4900613;29;20509;-93
2022/07/25 15:53:13;;;;;;;18.60;17.27;;;35.00;94.80;;;;;;4900624;29;20028;-93
2022/07/25 15:55:40;;;;;;;19.23;17.55;;;34.90;94.80;;;;;;4901129;29;20119;-93
2022/07/25 15:58:09;;;;;;;18.20;16.67;;;34.90;94.80;;;;;;4903945;29;20035;-92
2022/07/25 16:00:36;;;;;;;18.10;16.83;;;34.90;94.90;;;;;;4916894;29;20052;-94
2022/07/25 16:03:04;;;;;;;19.35;17.58;;;34.80;94.80;;;;;;4904160;29;20115;-91
2022/07/25 16:05:30;;;;;;;17.30;16.10;;;34.80;94.70;;;;;;4903888;29;20035;-92
2022/07/25 16:08:02;;;;;;;18.88;17.42;;;34.70;94.80;;;;;;4903772;29;20056;-92
2022/07/25 18:15:36;;;;;;;16.90;15.18;;;32.10;97.50;;;;;;4628369;23;20023;-90
2022/07/25 18:18:02;;;;;;;16.65;15.35;;;32.20;97.30;;;;;;4881105;29;20049;-90
2022/07/25 18:20:30;;;;;;;15.77;14.65;;;32.10;97.10;;;;;;4882557;29;20043;-90
2022/07/25 18:22:57;;;;;;;16.88;15.48;;;32.10;96.90;;;;;;4882946;29;20395;-91
2022/07/25 18:25:24;;;;;;;17.08;14.82;;;32.10;97.00;;;;;;4882765;29;20542;-91
2022/07/25 18:27:50;;;;;;;16.08;14.43;;;32.10;97.10;;;;;;4882688;29;20045;-91
2022/07/25 18:30:20;;;;;;;15.70;14.25;;;32.00;97.10;;;;;;4882569;29;20028;-91
2022/07/25 18:32:47;;;;;;;15.75;14.35;;;32.00;97.20;;;;;;4882562;29;20037;-91
2022/07/25 18:35:13;;;;;;;16.27;14.90;;;31.90;97.30;;;;;;4882906;29;20036;-91
2022/07/25 18:37:40;;;;;;;15.00;13.90;;;31.80;97.40;;;;;;4882579;29;20048;-92
2022/07/25 18:40:08;;;;;;;15.02;13.63;;;31.80;97.50;;;;;;4882549;29;20032;-93
2022/07/25 18:42:36;;;;;;;15.23;13.82;;;31.70;97.60;;;;;;4882778;29;20040;-91
2022/07/25 18:45:04;;;;;;;15.30;13.98;;;31.70;97.80;;;;;;4882475;29;20036;-90
2022/07/25 18:47:33;;;;;;;15.07;13.77;;;31.60;97.90;;;;;;4882262;29;20037;-90
2022/07/25 18:50:02;;;;;;;15.23;14.00;;;31.50;98.00;;;;;;4882527;29;20135;-91
2022/07/25 18:52:33;;;;;;;15.15;13.85;;;31.50;98.10;;;;;;4882617;29;20028;-91
2022/07/25 18:55:02;;;;;;;15.52;13.95;;;31.40;98.20;;;;;;4882878;29;20025;-91
2022/07/25 18:57:29;;;;;;;14.27;13.27;;;31.40;98.20;;;;;;4882503;29;20107;-91
2022/07/25 18:59:56;;;;;;;15.35;13.82;;;31.30;98.30;;;;;;4882353;29;20115;-91
2022/07/25 19:02:22;;;;;;;14.88;13.57;;;31.20;98.30;;;;;;4882583;29;20040;-91
2022/07/25 19:04:49;;;;;;;15.50;14.18;;;31.20;98.50;;;;;;4882338;29;20557;-92
2022/07/25 19:07:16;;;;;;;15.63;14.30;;;31.20;98.60;;;;;;4882423;29;20024;-91
2022/07/25 19:09:43;;;;;;;15.55;14.10;;;31.20;98.70;;;;;;4882225;29;20033;-91
2022/07/25 19:12:10;;;;;;;14.75;13.45;;;31.20;98.80;;;;;;4882400;29;20032;-92
2022/07/25 19:14:37;;;;;;;14.95;13.63;;;31.20;99.20;;;;;;4883637;29;20033;-92
2022/07/25 19:17:13;;;;;;;15.70;14.20;;;31.10;99.50;;;;;;4882094;29;20048;-90
2022/07/25 19:48:01;;;;;;;14.75;13.38;;;30.30;99.90;;;;;;5159878;23;20489;-92
2022/07/25 19:50:48;;;;;;;14.75;13.40;;;30.30;99.90;;;;;;4911314;29;20040;-92
2022/07/25 20:15:54;;;;;;;12.82;11.65;;;29.90;99.90;;;;;;4913593;29;20052;-94
2022/07/25 20:18:21;;;;;;;12.82;11.52;;;29.80;99.90;;;;;;4914919;29;20032;-94
2022/07/25 20:20:49;;;;;;;12.75;11.57;;;29.80;99.90;;;;;;4915498;29;20092;-94
2022/07/25 20:23:18;;;;;;;12.38;11.38;;;29.70;99.90;;;;;;4894190;29;20033;-95
2022/07/25 20:25:45;;;;;;;11.73;10.55;;;29.60;99.90;;;;;;4875231;29;20033;-94
2022/07/25 20:28:13;;;;;;;12.40;11.20;;;29.40;99.90;;;;;;4878521;29;20029;-94
2022/07/25 20:30:40;;;;;;;13.38;11.10;;;29.30;99.90;;;;;;4880517;29;20036;-93
2022/07/25 20:33:07;;;;;;;14.13;12.68;;;29.00;99.90;;;;;;4865946;29;20029;-94
2022/07/25 20:35:35;;;;;;;13.90;12.63;;;28.80;99.90;;;;;;4867405;29;20029;-94
2022/07/25 20:38:02;;;;;;;20.23;15.55;;;28.60;99.90;;;;;;4867800;29;20069;-93
2022/07/25 20:40:29;;;;;;;26.40;17.55;;;28.50;99.90;;;;;;4867156;29;20033;-93
2022/07/25 20:42:56;;;;;;;15.55;11.52;;;28.60;99.90;;;;;;4866372;29;20117;-93
2022/07/25 20:45:22;;;;;;;18.73;11.68;;;28.60;99.90;;;;;;4867059;29;20510;-92
2022/07/25 20:47:49;;;;;;;16.55;10.48;;;28.50;99.90;;;;;;4867306;29;20029;-92
2022/07/25 20:50:16;;;;;;;12.45;10.25;;;28.50;99.90;;;;;;4867542;29;20029;-93
2022/07/25 20:52:42;;;;;;;13.70;10.55;;;28.40;99.90;;;;;;4868103;29;20043;-93
2022/07/25 20:55:09;;;;;;;20.27;11.07;;;28.30;99.90;;;;;;4868098;29;20530;-94
2022/07/25 20:57:36;;;;;;;16.13;11.20;;;28.20;99.90;;;;;;4870111;29;20033;-93
2022/07/25 21:00:04;;;;;;;13.77;9.93;;;28.20;99.90;;;;;;4868293;29;20056;-93
2022/07/25 21:02:32;;;;;;;15.65;10.40;;;28.10;99.90;;;;;;4869475;29;20376;-93
2022/07/25 21:05:17;;;;;;;15.20;11.25;;;28.20;99.90;;;;;;4868584;29;20029;-92
2022/07/25 21:07:44;;;;;;;16.00;10.30;;;28.10;99.90;;;;;;4867601;29;20439;-93
2022/07/25 21:10:12;;;;;;;20.85;11.32;;;28.10;99.90;;;;;;4867722;29;20033;-92
2022/07/25 21:12:40;;;;;;;19.48;12.18;;;28.00;99.90;;;;;;4872080;29;20131;-93
2022/07/25 21:15:08;;;;;;;15.95;11.40;;;28.00;99.90;;;;;;4870736;29;20045;-93
2022/07/25 21:17:34;;;;;;;16.02;10.77;;;28.00;99.90;;;;;;4872005;29;20033;-93
2022/07/25 21:20:02;;;;;;;14.43;10.98;;;28.00;99.90;;;;;;4873355;29;20110;-92
2022/07/25 21:22:28;;;;;;;13.40;10.23;;;27.90;99.90;;;;;;4872942;29;20037;-91
2022/07/25 21:24:55;;;;;;;16.60;10.90;;;27.90;99.90;;;;;;4888496;29;20017;-91
2022/07/25 21:27:23;;;;;;;14.05;10.68;;;27.90;99.90;;;;;;4870258;29;20037;-93
2022/07/25 21:29:50;;;;;;;15.63;10.98;;;27.90;99.90;;;;;;4869710;29;20029;-93
2022/07/25 21:32:18;;;;;;;12.25;10.57;;;27.90;99.90;;;;;;4871588;29;20037;-93
2022/07/25 21:34:46;;;;;;;11.80;10.50;;;27.90;99.90;;;;;;4870482;29;20569;-93
2022/07/25 21:37:13;;;;;;;18.92;10.50;;;27.80;99.90;;;;;;4869757;29;20483;-92
2022/07/25 21:39:40;;;;;;;15.70;10.43;;;27.80;99.90;;;;;;4867245;29;20033;-93
2022/07/25 21:42:08;;;;;;;13.63;10.70;;;27.80;99.90;;;;;;4865435;29;20056;-93
2022/07/25 21:44:42;;;;;;;13.10;10.30;;;27.80;99.90;;;;;;4865231;29;20100;-92
2022/07/25 21:47:09;;;;;;;16.38;11.60;;;27.70;99.90;;;;;;4865151;29;20037;-91
2022/07/25 21:52:23;;;;;;;13.02;11.57;;;27.70;99.90;;;;;;4883098;29;20041;-93
2022/07/25 21:54:50;;;;;;;12.65;10.93;;;27.70;99.90;;;;;;4869995;29;20116;-93
2022/07/25 21:57:19;;;;;;;15.73;10.80;;;27.70;99.90;;;;;;4883096;29;20060;-93
2022/07/25 21:59:46;;;;;;;13.13;10.93;;;27.70;99.90;;;;;;4870380;29;20435;-93
2022/07/25 22:02:14;;;;;;;15.98;11.65;;;27.60;99.90;;;;;;4855411;29;20033;-93
2022/07/25 22:04:41;;;;;;;14.80;11.45;;;27.70;99.90;;;;;;4850644;29;20045;-93
2022/07/25 22:07:11;;;;;;;15.73;10.93;;;27.60;99.90;;;;;;4844208;29;20038;-94
2022/07/25 22:10:25;;;;;;;14.02;11.20;;;27.60;99.90;;;;;;4872817;29;20052;-93
2022/07/25 22:13:18;;;;;;;12.45;11.13;;;27.50;99.90;;;;;;4840686;29;20046;-93
2022/07/25 22:15:53;;;;;;;13.43;11.00;;;27.10;99.90;;;;;;4828504;29;20065;-95
2022/07/25 22:18:26;;;;;;;13.07;10.73;;;27.00;99.90;;;;;;4825119;29;20068;-93
2022/07/25 22:21:02;;;;;;;16.27;11.77;;;26.90;99.90;;;;;;4842650;29;20090;-93
2022/07/25 22:23:33;;;;;;;14.60;11.73;;;26.90;99.90;;;;;;4827186;29;20051;-94